Time;durP1;ratioP1;P1;durP2;ratioP2;P2;SDS_P1;SDS_P2;PMS_P1;PMS_P2;Temp;Humidity;BMP_temperature;BMP_pressure;BME280_temperature;BME280_humidity;BME280_pressure;Samples;Min_cycle;Max_cycle;Signal;HPM_P1;HPM_P2
2022/01/19 00:00:55;;;;;;;68.18;42.10;;;4.80;99.90;;;;;;4914925;28;89915;-32
2022/01/19 00:03:20;;;;;;;63.95;38.58;;;4.80;99.90;;;;;;4915148;28;89422;-30
2022/01/19 00:05:46;;;;;;;63.80;37.78;;;4.80;99.90;;;;;;4927736;28;87428;-30
2022/01/19 00:08:16;;;;;;;74.75;41.75;;;4.80;99.90;;;;;;4934075;28;89463;-31
2022/01/19 00:10:43;;;;;;;66.20;40.55;;;4.80;99.90;;;;;;4934226;28;89546;-31
2022/01/19 00:13:09;;;;;;;77.18;41.67;;;4.80;99.90;;;;;;4935955;28;89591;-31
2022/01/19 00:15:34;;;;;;;81.03;41.15;;;4.80;99.90;;;;;;4937660;28;88160;-31
2022/01/19 00:18:00;;;;;;;65.38;39.47;;;4.80;99.90;;;;;;4938129;28;89855;-31
2022/01/19 00:20:28;;;;;;;69.95;41.70;;;4.80;99.90;;;;;;4937402;28;90953;-30
2022/01/19 00:22:54;;;;;;;72.05;41.17;;;4.80;99.90;;;;;;4938058;28;92262;-31
2022/01/19 00:25:21;;;;;;;70.95;42.08;;;4.80;99.90;;;;;;4938211;28;87824;-31
2022/01/19 00:27:46;;;;;;;71.30;45.90;;;4.80;99.90;;;;;;4937178;28;90509;-31
2022/01/19 00:30:13;;;;;;;81.95;45.47;;;4.70;99.90;;;;;;4937722;28;89712;-32
2022/01/19 00:32:38;;;;;;;82.05;43.20;;;4.80;99.90;;;;;;4937633;28;89819;-30
2022/01/19 00:35:06;;;;;;;76.63;48.65;;;4.80;99.90;;;;;;4937523;28;87993;-31
2022/01/19 00:37:31;;;;;;;86.93;49.80;;;4.80;99.90;;;;;;4935706;28;90055;-32
2022/01/19 00:39:57;;;;;;;79.47;47.80;;;4.80;99.90;;;;;;4938032;28;89655;-31
2022/01/19 00:42:23;;;;;;;83.10;48.65;;;4.80;99.90;;;;;;4936608;28;89611;-30
2022/01/19 00:44:48;;;;;;;74.03;46.42;;;4.80;99.90;;;;;;4936639;28;87971;-28
2022/01/19 00:47:15;;;;;;;82.97;49.47;;;4.80;99.90;;;;;;4937506;28;89947;-31
2022/01/19 00:49:42;;;;;;;81.07;46.20;;;4.70;99.90;;;;;;4937130;28;89536;-30
2022/01/19 00:52:09;;;;;;;80.15;44.83;;;4.80;99.90;;;;;;4936862;28;89682;-31
2022/01/19 00:54:35;;;;;;;73.57;45.95;;;4.70;99.90;;;;;;4937311;28;88973;-29
2022/01/19 00:57:01;;;;;;;70.50;43.88;;;4.70;99.90;;;;;;4937324;28;90172;-32
2022/01/19 00:59:27;;;;;;;70.90;43.28;;;4.70;99.90;;;;;;4937602;28;89357;-33
2022/01/19 01:01:53;;;;;;;76.80;44.28;;;4.70;99.90;;;;;;4937238;28;89266;-31
2022/01/19 01:04:18;;;;;;;71.70;41.42;;;4.70;99.90;;;;;;4935355;28;87495;-30
2022/01/19 01:06:44;;;;;;;67.63;41.55;;;4.60;99.90;;;;;;4936529;28;90227;-32
2022/01/19 01:09:10;;;;;;;69.15;41.28;;;4.70;99.90;;;;;;4936662;28;90246;-30
2022/01/19 01:11:46;;;;;;;69.18;43.08;;;4.60;99.90;;;;;;4936757;28;90739;-31
2022/01/19 01:16:58;;;;;;;72.13;39.42;;;4.60;99.90;;;;;;4936207;28;90266;-32
2022/01/19 01:19:24;;;;;;;62.03;37.33;;;4.60;99.90;;;;;;4937135;28;89166;-30
2022/01/19 01:21:50;;;;;;;74.38;39.83;;;4.60;99.90;;;;;;4936942;28;89732;-30
2022/01/19 01:24:16;;;;;;;66.70;38.50;;;4.60;99.90;;;;;;4937102;28;87511;-32
2022/01/19 01:26:41;;;;;;;65.22;37.47;;;4.50;99.90;;;;;;4937455;28;88828;-32
2022/01/19 01:29:07;;;;;;;58.28;34.75;;;4.50;99.90;;;;;;4936829;28;89576;-29
2022/01/19 01:31:33;;;;;;;61.67;36.47;;;4.40;99.90;;;;;;4936728;28;89769;-32
2022/01/19 01:33:58;;;;;;;55.58;35.17;;;4.30;99.90;;;;;;4936180;28;88696;-28
2022/01/19 01:36:24;;;;;;;52.78;34.92;;;4.20;99.90;;;;;;4936405;28;89842;-30
2022/01/19 01:38:50;;;;;;;58.47;34.78;;;4.10;99.90;;;;;;4936370;28;89315;-31
2022/01/19 01:41:15;;;;;;;55.67;36.28;;;4.10;99.90;;;;;;4936407;28;89723;-32
2022/01/19 01:43:42;;;;;;;58.17;33.60;;;4.10;99.90;;;;;;4936283;28;88026;-32
2022/01/19 01:46:13;;;;;;;62.92;32.03;;;4.00;99.90;;;;;;4936265;28;89488;-30
2022/01/19 01:48:44;;;;;;;51.08;31.42;;;4.00;99.90;;;;;;4936430;28;89526;-30
2022/01/19 01:53:59;;;;;;;52.03;29.90;;;3.80;99.90;;;;;;4936965;28;87527;-29
2022/01/19 01:56:24;;;;;;;47.47;29.42;;;3.70;99.90;;;;;;4936232;28;90302;-31
2022/01/19 01:58:50;;;;;;;51.65;30.60;;;3.60;99.90;;;;;;4936034;28;90445;-30
2022/01/19 02:01:17;;;;;;;59.20;32.22;;;3.60;99.90;;;;;;4935743;28;90552;-30
2022/01/19 02:03:44;;;;;;;51.08;31.23;;;3.50;99.90;;;;;;4936094;28;87675;-30
2022/01/19 02:08:53;;;;;;;54.10;32.80;;;3.40;99.90;;;;;;4935853;28;88686;-32
2022/01/19 02:23:12;;;;;;;43.85;27.70;;;3.20;99.90;;;;;;4881958;28;89806;-30
2022/01/19 02:25:42;;;;;;;50.35;30.40;;;3.10;99.90;;;;;;4935785;28;87942;-31
2022/01/19 02:41:42;;;;;;;40.70;28.13;;;3.00;99.90;;;;;;4935382;28;89696;-30
2022/01/19 02:44:11;;;;;;;56.45;27.73;;;2.90;99.90;;;;;;4935473;28;88166;-33
2022/01/19 02:49:10;;;;;;;58.40;29.92;;;3.00;99.90;;;;;;4935266;28;87801;-29
2022/01/19 02:49:38;;;;;;;47.03;29.15;;;3.00;99.90;;;;;;4935307;28;90844;-31
2022/01/19 02:52:04;;;;;;;56.40;29.38;;;3.00;99.90;;;;;;4934850;28;90167;-31
2022/01/19 02:54:30;;;;;;;47.38;29.42;;;3.00;99.90;;;;;;4935370;28;90114;-29
2022/01/19 02:56:59;;;;;;;54.70;28.50;;;3.00;99.90;;;;;;4935230;28;87809;-33
2022/01/19 02:59:33;;;;;;;43.97;27.77;;;2.90;99.90;;;;;;4935251;28;90279;-30
2022/01/19 03:10:13;;;;;;;66.82;31.58;;;2.80;99.90;;;;;;4935725;28;90096;-30
2022/01/19 03:12:38;;;;;;;65.57;33.75;;;2.80;99.90;;;;;;4935170;28;88803;-29
2022/01/19 03:15:09;;;;;;;66.43;35.85;;;2.90;99.90;;;;;;4935121;28;89958;-32
2022/01/19 03:17:34;;;;;;;80.65;37.60;;;3.00;99.90;;;;;;4917891;28;88200;-30
2022/01/19 03:20:00;;;;;;;88.82;37.65;;;3.10;99.90;;;;;;4934557;28;89994;-33
2022/01/19 03:22:33;;;;;;;65.55;36.47;;;3.10;99.90;;;;;;4934731;28;89742;-29
2022/01/19 03:24:59;;;;;;;57.97;35.30;;;3.20;99.90;;;;;;4934820;28;89524;-30
2022/01/19 03:27:25;;;;;;;77.07;35.78;;;3.20;99.90;;;;;;4934764;28;87413;-30
2022/01/19 03:29:50;;;;;;;89.30;37.13;;;3.20;99.90;;;;;;4935280;28;88863;-31
2022/01/19 03:32:16;;;;;;;97.95;38.05;;;3.30;99.90;;;;;;4934508;28;90411;-32
2022/01/19 03:34:42;;;;;;;122.60;40.67;;;3.30;99.90;;;;;;4934329;28;88893;-29
2022/01/19 03:37:08;;;;;;;103.68;35.20;;;3.30;99.90;;;;;;4933573;28;87327;-33
2022/01/19 03:39:34;;;;;;;90.15;35.92;;;3.30;99.90;;;;;;4933855;28;88878;-32
2022/01/19 03:42:00;;;;;;;189.77;41.60;;;3.30;99.90;;;;;;4932821;28;89163;-32
2022/01/19 03:44:26;;;;;;;148.82;39.88;;;3.30;99.90;;;;;;4933660;28;90492;-30
2022/01/19 03:47:00;;;;;;;151.95;40.40;;;3.40;99.90;;;;;;4932901;28;87348;-30
2022/01/19 03:49:29;;;;;;;91.65;30.30;;;3.30;99.90;;;;;;4933986;28;89134;-29
2022/01/19 03:51:58;;;;;;;133.30;37.47;;;3.30;99.90;;;;;;4934574;28;89838;-29
2022/01/19 03:54:28;;;;;;;91.10;33.13;;;3.30;99.90;;;;;;4935037;28;89284;-32
2022/01/19 03:56:54;;;;;;;56.97;27.33;;;3.20;99.90;;;;;;4934579;28;88541;-31
2022/01/19 03:59:20;;;;;;;65.90;28.05;;;3.20;99.90;;;;;;4934467;28;89260;-33
2022/01/19 04:01:46;;;;;;;82.05;30.05;;;3.20;99.90;;;;;;4934580;28;89733;-31
2022/01/19 04:06:54;;;;;;;;;;;3.20;99.90;;;;;;4934247;28;87897;-29
2022/01/19 04:09:19;;;;;;;113.55;33.25;;;3.20;99.90;;;;;;4934612;28;90052;-33
2022/01/19 04:11:45;;;;;;;66.20;29.70;;;3.10;99.90;;;;;;4933858;28;89762;-30
2022/01/19 04:14:22;;;;;;;67.32;28.73;;;3.10;99.90;;;;;;4934434;28;89669;-30
2022/01/19 04:16:50;;;;;;;70.23;29.20;;;3.20;99.90;;;;;;4927957;28;87481;-32
2022/01/19 04:19:26;;;;;;;67.10;31.13;;;3.20;99.90;;;;;;4923750;28;90266;-31
2022/01/19 04:21:52;;;;;;;84.03;33.38;;;3.10;99.90;;;;;;4920096;28;89318;-31
2022/01/19 04:24:18;;;;;;;97.47;36.47;;;3.10;99.90;;;;;;4919241;28;89380;-30
2022/01/19 04:26:45;;;;;;;42.72;28.92;;;3.10;99.90;;;;;;4914030;28;87525;-31
2022/01/19 04:29:11;;;;;;;74.72;34.75;;;3.10;99.90;;;;;;4921763;28;90230;-31
2022/01/19 04:31:36;;;;;;;53.35;31.52;;;3.00;99.90;;;;;;4920380;28;90004;-31
2022/01/19 04:34:05;;;;;;;66.22;33.72;;;3.00;99.90;;;;;;4920530;28;90291;-32
2022/01/19 04:44:04;;;;;;;63.55;31.48;;;2.90;99.90;;;;;;4933823;28;89723;-30
2022/01/19 04:44:53;;;;;;;56.25;31.75;;;2.90;99.90;;;;;;4933755;28;88997;-31
2022/01/19 05:06:15;;;;;;;49.38;30.67;;;2.80;99.90;;;;;;4924691;28;89496;-30
2022/01/19 05:08:54;;;;;;;56.78;33.20;;;2.70;99.90;;;;;;4921030;28;87513;-30
2022/01/19 05:14:04;;;;;;;43.35;31.17;;;2.70;99.90;;;;;;4922463;28;89970;-30
2022/01/19 05:16:30;;;;;;;50.08;32.55;;;2.70;99.90;;;;;;4924572;28;89193;-31
2022/01/19 05:18:55;;;;;;;68.10;34.63;;;2.70;99.90;;;;;;4925589;28;87836;-35
2022/01/19 05:21:21;;;;;;;50.30;35.03;;;2.70;99.90;;;;;;4924458;28;89950;-32
2022/01/19 05:23:47;;;;;;;49.35;33.00;;;2.60;99.90;;;;;;4923912;28;90624;-32
2022/01/19 05:26:12;;;;;;;48.63;35.38;;;2.60;99.90;;;;;;4926497;28;90529;-30
2022/01/19 05:28:38;;;;;;;59.45;36.00;;;2.60;99.90;;;;;;4933539;28;87545;-30
2022/01/19 05:31:04;;;;;;;67.97;37.03;;;2.50;99.90;;;;;;4916097;28;90264;-32
2022/01/19 05:33:30;;;;;;;63.70;36.95;;;2.50;99.90;;;;;;4915997;28;88609;-32
2022/01/19 05:35:55;;;;;;;56.92;34.40;;;2.50;99.90;;;;;;4915649;28;89177;-32
2022/01/19 05:38:21;;;;;;;76.93;40.33;;;2.50;99.90;;;;;;4915491;28;88478;-30
2022/01/19 05:40:46;;;;;;;66.65;38.08;;;2.50;99.90;;;;;;4915766;28;90270;-30
2022/01/19 05:43:12;;;;;;;59.08;37.92;;;2.50;99.90;;;;;;4916209;28;89699;-30
2022/01/19 05:45:38;;;;;;;65.47;40.25;;;2.40;99.90;;;;;;4916684;28;89466;-30
2022/01/19 05:48:04;;;;;;;60.35;38.80;;;2.40;99.90;;;;;;4915800;28;87824;-32
2022/01/19 05:50:29;;;;;;;61.53;38.10;;;2.40;99.90;;;;;;4917427;28;89100;-31
2022/01/19 05:52:55;;;;;;;62.85;40.58;;;2.40;99.90;;;;;;4916578;28;89761;-29
2022/01/19 05:55:20;;;;;;;71.47;44.58;;;2.40;99.90;;;;;;4916557;28;89869;-30
2022/01/19 05:57:46;;;;;;;76.53;43.95;;;2.40;99.90;;;;;;4916567;28;88238;-30
2022/01/19 06:00:12;;;;;;;72.13;44.67;;;2.40;99.90;;;;;;4916642;28;91045;-30
2022/01/19 06:02:38;;;;;;;66.88;42.78;;;2.40;99.90;;;;;;4917009;28;89769;-32
2022/01/19 06:05:05;;;;;;;71.57;44.63;;;2.50;99.90;;;;;;4917053;28;89397;-33
2022/01/19 06:07:39;;;;;;;72.88;46.65;;;2.50;99.90;;;;;;4916400;28;88128;-32
2022/01/19 06:10:11;;;;;;;64.57;44.75;;;2.60;99.90;;;;;;4915889;28;90154;-30
2022/01/19 06:12:37;;;;;;;68.82;44.05;;;2.60;99.90;;;;;;4916251;28;89274;-30
2022/01/19 06:15:03;;;;;;;65.57;44.35;;;2.60;99.90;;;;;;4916276;28;90815;-29
2022/01/19 06:17:29;;;;;;;63.97;44.17;;;2.60;99.90;;;;;;4917026;28;88380;-31
2022/01/19 06:19:54;;;;;;;74.15;43.80;;;2.60;99.90;;;;;;4916344;28;90655;-31
2022/01/19 06:22:21;;;;;;;72.80;46.22;;;2.60;99.90;;;;;;4916599;28;89535;-29
2022/01/19 06:24:48;;;;;;;68.07;43.63;;;2.60;99.90;;;;;;4916544;28;89456;-29
2022/01/19 06:27:14;;;;;;;71.97;44.85;;;2.60;99.90;;;;;;4916246;28;87599;-29
2022/01/19 06:29:39;;;;;;;68.85;45.30;;;2.70;99.90;;;;;;4916433;28;90406;-32
2022/01/19 06:32:05;;;;;;;66.55;42.88;;;2.70;99.90;;;;;;4916485;28;89827;-30
2022/01/19 06:34:31;;;;;;;71.00;46.83;;;2.70;99.90;;;;;;4915951;28;89499;-30
2022/01/19 06:36:56;;;;;;;66.47;41.08;;;2.70;99.90;;;;;;4915603;28;87787;-30
2022/01/19 06:39:22;;;;;;;68.20;43.35;;;2.70;99.90;;;;;;4916094;28;89950;-30
2022/01/19 06:41:48;;;;;;;72.70;42.22;;;2.70;99.90;;;;;;4916005;28;89053;-31
2022/01/19 06:44:14;;;;;;;68.60;42.45;;;2.70;99.90;;;;;;4916494;28;89524;-29
2022/01/19 06:46:42;;;;;;;65.28;40.45;;;2.80;99.90;;;;;;4916362;28;87399;-28
2022/01/19 06:49:08;;;;;;;68.32;40.42;;;2.80;99.90;;;;;;4915587;28;90761;-30
2022/01/19 06:51:33;;;;;;;62.42;39.35;;;2.80;99.90;;;;;;4898900;28;89752;-31
2022/01/19 06:53:59;;;;;;;57.40;39.08;;;2.90;99.90;;;;;;4916337;28;89641;-31
2022/01/19 06:56:24;;;;;;;62.33;37.97;;;3.00;99.90;;;;;;4916432;28;87543;-30
2022/01/19 06:58:50;;;;;;;55.47;37.50;;;3.00;99.90;;;;;;4914771;28;89397;-32
2022/01/19 07:01:16;;;;;;;57.70;40.25;;;3.00;99.90;;;;;;4915391;28;90768;-32
2022/01/19 07:03:42;;;;;;;55.13;37.25;;;3.00;99.90;;;;;;4915720;28;90711;-30
2022/01/19 07:06:11;;;;;;;49.88;38.63;;;3.00;99.90;;;;;;4915568;28;87521;-31
2022/01/19 07:08:37;;;;;;;;;;;3.00;99.90;;;;;;4913929;28;90385;-30
2022/01/19 07:11:03;;;;;;;47.58;35.17;;;3.00;99.90;;;;;;4916382;28;88862;-30
2022/01/19 07:13:28;;;;;;;45.65;33.10;;;3.00;99.90;;;;;;4915516;28;89785;-33
2022/01/19 07:15:54;;;;;;;55.00;37.72;;;3.00;99.90;;;;;;4916118;28;87550;-32
2022/01/19 07:18:20;;;;;;;39.15;31.30;;;3.00;99.90;;;;;;4916118;28;90169;-31
2022/01/19 07:20:45;;;;;;;41.58;32.95;;;3.00;99.90;;;;;;4916081;28;89722;-31
2022/01/19 07:23:11;;;;;;;47.53;33.10;;;3.00;99.90;;;;;;4914777;28;89692;-30
2022/01/19 07:25:36;;;;;;;46.10;32.53;;;3.00;99.90;;;;;;4915671;28;88321;-30
2022/01/19 07:28:05;;;;;;;49.58;35.67;;;3.00;99.90;;;;;;4915077;28;89023;-31
2022/01/19 07:30:31;;;;;;;54.97;36.65;;;3.00;99.90;;;;;;4915909;28;88564;-31
2022/01/19 07:32:57;;;;;;;46.38;34.80;;;3.00;99.90;;;;;;4915178;28;89621;-30
2022/01/19 07:35:22;;;;;;;47.85;35.00;;;3.00;99.90;;;;;;4915310;28;87258;-31
2022/01/19 07:37:48;;;;;;;49.25;34.38;;;2.90;99.90;;;;;;4915290;28;90153;-33
2022/01/19 07:40:13;;;;;;;45.83;34.38;;;3.00;99.90;;;;;;4913904;28;89327;-31
2022/01/19 07:42:39;;;;;;;50.03;35.72;;;3.00;99.90;;;;;;4913071;28;89897;-30
2022/01/19 07:45:06;;;;;;;45.90;32.92;;;2.90;99.90;;;;;;4913362;28;88019;-32
2022/01/19 07:47:32;;;;;;;46.85;33.22;;;2.90;99.90;;;;;;4913008;28;90516;-33
2022/01/19 07:49:57;;;;;;;45.30;34.95;;;2.90;99.90;;;;;;4912004;28;90855;-29
2022/01/19 07:52:25;;;;;;;46.92;33.75;;;3.00;99.90;;;;;;4912828;28;90741;-31
2022/01/19 07:54:51;;;;;;;58.42;39.00;;;2.90;99.90;;;;;;4913398;28;87605;-30
2022/01/19 07:57:17;;;;;;;47.53;36.03;;;2.90;99.90;;;;;;4896073;28;92125;-29
2022/01/19 07:59:43;;;;;;;51.70;37.70;;;2.90;99.90;;;;;;4914180;28;90046;-30
2022/01/19 08:02:11;;;;;;;48.28;34.42;;;3.00;99.90;;;;;;4914930;28;89369;-29
2022/01/19 08:04:36;;;;;;;48.03;37.33;;;3.00;99.90;;;;;;4915021;28;87581;-30
2022/01/19 08:07:02;;;;;;;47.50;36.42;;;3.00;99.90;;;;;;4914830;28;90216;-29
2022/01/19 08:09:30;;;;;;;46.17;38.33;;;2.90;99.90;;;;;;4914765;28;89835;-30
2022/01/19 08:11:55;;;;;;;45.65;37.13;;;3.00;99.90;;;;;;4913246;28;89019;-32
2022/01/19 08:14:24;;;;;;;54.08;40.17;;;3.00;99.90;;;;;;4912930;28;88415;-30
2022/01/19 08:16:50;;;;;;;48.33;36.45;;;3.00;99.90;;;;;;4914533;28;90211;-32
2022/01/19 08:19:16;;;;;;;47.53;37.40;;;3.00;99.90;;;;;;4914865;28;89480;-29
2022/01/19 08:21:41;;;;;;;54.88;36.90;;;3.00;99.90;;;;;;4915114;28;89253;-32
2022/01/19 08:24:07;;;;;;;46.53;39.40;;;3.00;99.90;;;;;;4914445;28;87713;-29
2022/01/19 08:26:32;;;;;;;55.40;39.78;;;3.00;99.90;;;;;;4914571;28;90613;-29
2022/01/19 08:28:58;;;;;;;58.58;40.08;;;3.00;99.90;;;;;;4914583;28;89286;-32
2022/01/19 08:31:24;;;;;;;56.17;38.60;;;3.10;99.90;;;;;;4915412;28;88517;-31
2022/01/19 08:33:49;;;;;;;56.65;38.10;;;3.10;99.90;;;;;;4916447;28;87765;-30
2022/01/19 08:36:16;;;;;;;49.10;35.13;;;3.10;99.90;;;;;;4918156;28;91339;-30
2022/01/19 08:38:42;;;;;;;52.25;41.17;;;3.10;99.90;;;;;;4917224;28;90023;-30
2022/01/19 08:41:08;;;;;;;55.72;41.42;;;3.10;99.90;;;;;;4917873;28;90168;-33
2022/01/19 08:43:34;;;;;;;49.90;38.85;;;3.20;99.90;;;;;;4917931;28;87489;-29
2022/01/19 08:46:00;;;;;;;42.75;37.97;;;3.20;99.90;;;;;;4917620;28;89392;-30
2022/01/19 08:48:26;;;;;;;45.72;39.60;;;3.20;99.90;;;;;;4917859;28;89679;-29
2022/01/19 08:50:52;;;;;;;55.33;42.20;;;3.20;99.90;;;;;;4917534;28;89279;-29
2022/01/19 08:53:18;;;;;;;53.08;41.05;;;3.20;99.90;;;;;;4917970;28;88051;-33
2022/01/19 08:55:44;;;;;;;55.92;43.17;;;3.20;99.90;;;;;;4918287;28;90135;-34
2022/01/19 08:58:10;;;;;;;51.97;43.33;;;3.20;99.90;;;;;;4917749;28;89424;-31
2022/01/19 09:00:36;;;;;;;56.53;42.30;;;3.30;99.90;;;;;;4918097;28;90569;-29
2022/01/19 09:03:02;;;;;;;56.25;43.80;;;3.30;99.90;;;;;;4917218;28;88888;-30
2022/01/19 09:05:28;;;;;;;55.28;43.13;;;3.30;99.90;;;;;;4917573;28;90601;-31
2022/01/19 09:07:55;;;;;;;58.83;45.72;;;3.40;99.90;;;;;;4917719;28;89960;-30
2022/01/19 09:10:22;;;;;;;56.13;43.60;;;3.40;99.90;;;;;;4917653;28;90584;-31
2022/01/19 09:12:47;;;;;;;62.35;44.80;;;3.40;99.90;;;;;;4917650;28;87384;-29
2022/01/19 09:15:15;;;;;;;55.13;45.40;;;3.40;99.90;;;;;;4917153;28;89316;-29
2022/01/19 09:17:43;;;;;;;61.33;45.60;;;3.40;99.90;;;;;;4917296;28;88940;-31
2022/01/19 09:20:11;;;;;;;62.33;46.60;;;3.60;99.90;;;;;;4917361;28;89715;-32
2022/01/19 09:22:37;;;;;;;59.23;47.47;;;3.50;99.90;;;;;;4917757;28;87855;-32
2022/01/19 09:25:04;;;;;;;62.22;46.97;;;3.60;99.90;;;;;;4917451;28;90028;-30
2022/01/19 09:27:30;;;;;;;66.80;50.60;;;3.60;99.90;;;;;;4916820;28;90226;-30
2022/01/19 09:29:56;;;;;;;59.50;45.33;;;3.60;99.90;;;;;;4917066;28;91079;-31
2022/01/19 09:32:22;;;;;;;58.83;45.38;;;3.60;99.90;;;;;;4917700;28;87827;-30
2022/01/19 09:34:54;;;;;;;59.83;47.50;;;3.60;99.90;;;;;;4917224;28;88876;-29
2022/01/19 09:37:20;;;;;;;61.10;48.25;;;3.60;99.90;;;;;;4917531;28;89642;-30
2022/01/19 09:39:45;;;;;;;63.83;47.60;;;3.60;99.90;;;;;;4917315;28;89593;-30
2022/01/19 09:42:11;;;;;;;60.72;49.53;;;3.70;99.90;;;;;;4917334;28;87806;-30
2022/01/19 09:44:37;;;;;;;59.40;49.03;;;3.70;99.90;;;;;;4915844;28;90204;-29
2022/01/19 09:47:04;;;;;;;67.18;47.08;;;3.70;99.90;;;;;;4916629;28;89722;-29
2022/01/19 09:49:29;;;;;;;63.20;48.08;;;3.70;99.90;;;;;;4917211;28;91185;-34
2022/01/19 09:51:55;;;;;;;61.50;48.45;;;3.70;99.90;;;;;;4916432;28;89240;-32
2022/01/19 09:54:24;;;;;;;59.55;46.85;;;3.70;99.90;;;;;;4916722;28;90891;-32
2022/01/19 09:56:51;;;;;;;61.70;48.75;;;3.80;99.90;;;;;;4917490;28;89688;-33
2022/01/19 09:59:17;;;;;;;59.47;46.28;;;3.80;99.90;;;;;;4916983;28;89729;-32
2022/01/19 10:02:06;;;;;;;56.00;43.55;;;3.80;99.90;;;;;;4917339;28;87794;-29
2022/01/19 10:04:37;;;;;;;65.95;47.60;;;3.80;99.90;;;;;;4916413;28;90267;-34
2022/01/19 10:07:10;;;;;;;59.67;44.63;;;3.90;99.90;;;;;;4916323;28;91302;-29
2022/01/19 10:10:16;;;;;;;64.82;49.85;;;3.90;99.90;;;;;;4916794;28;89841;-33
2022/01/19 10:18:25;;;;;;;61.60;48.67;;;3.90;99.90;;;;;;4915714;28;91070;-30
2022/01/19 10:21:12;;;;;;;61.55;50.72;;;3.90;99.90;;;;;;4916462;28;89529;-32
2022/01/19 10:23:44;;;;;;;65.97;47.25;;;3.90;99.90;;;;;;4916481;28;88096;-29
2022/01/19 10:26:13;;;;;;;64.57;44.05;;;4.00;99.90;;;;;;4916393;28;89991;-31
2022/01/19 10:29:09;;;;;;;65.13;50.88;;;4.00;99.90;;;;;;4916718;28;89980;-29
2022/01/19 10:31:36;;;;;;;65.40;53.08;;;4.00;99.90;;;;;;4903762;28;89261;-30
2022/01/19 10:34:15;;;;;;;70.50;52.58;;;3.90;99.90;;;;;;4916033;28;87885;-30
2022/01/19 10:36:47;;;;;;;67.50;50.95;;;3.90;99.90;;;;;;4916702;28;90505;-30
2022/01/19 10:39:13;;;;;;;70.80;54.53;;;4.00;99.90;;;;;;4916427;28;89167;-32
2022/01/19 10:42:00;;;;;;;79.60;55.20;;;4.00;99.90;;;;;;4916487;28;90240;-29
2022/01/19 10:44:47;;;;;;;71.60;54.15;;;4.00;99.90;;;;;;4915816;28;88646;-30
2022/01/19 10:47:12;;;;;;;63.28;44.72;;;4.10;99.90;;;;;;4916308;28;89037;-32
2022/01/19 10:49:55;;;;;;;77.10;55.08;;;4.10;99.90;;;;;;4915913;28;89005;-32
2022/01/19 10:52:30;;;;;;;74.70;54.90;;;4.10;99.90;;;;;;4916010;28;89302;-31
2022/01/19 10:54:58;;;;;;;66.35;52.75;;;4.10;99.90;;;;;;4916036;28;88362;-33
2022/01/19 10:57:25;;;;;;;77.77;56.63;;;4.20;99.90;;;;;;4915248;28;89932;-31
2022/01/19 10:59:51;;;;;;;90.40;56.80;;;4.20;99.90;;;;;;4916024;28;89784;-30
2022/01/19 11:02:17;;;;;;;81.68;56.95;;;4.30;99.90;;;;;;4916293;28;88362;-29
2022/01/19 11:04:45;;;;;;;76.38;60.25;;;4.20;99.90;;;;;;4915849;28;87748;-28
2022/01/19 11:07:13;;;;;;;81.07;58.50;;;4.20;99.90;;;;;;4915670;28;89126;-29
2022/01/19 11:09:56;;;;;;;85.10;60.77;;;4.20;99.90;;;;;;4915190;28;90718;-31
2022/01/19 11:12:26;;;;;;;80.18;59.00;;;4.30;99.90;;;;;;4915641;28;90287;-30
2022/01/19 11:14:52;;;;;;;84.93;59.63;;;4.30;99.90;;;;;;4915678;28;88521;-31
2022/01/19 11:17:17;;;;;;;88.53;64.30;;;4.30;99.90;;;;;;4915168;28;90887;-30
2022/01/19 11:19:44;;;;;;;84.75;60.80;;;4.30;99.90;;;;;;4915617;28;89970;-29
2022/01/19 11:22:18;;;;;;;88.97;62.00;;;4.30;99.90;;;;;;4915612;28;89447;-30
2022/01/19 11:24:58;;;;;;;82.20;59.35;;;4.30;99.90;;;;;;4915835;28;87486;-30
2022/01/19 11:27:28;;;;;;;96.93;61.42;;;4.30;99.90;;;;;;4915554;28;90273;-32
2022/01/19 11:30:20;;;;;;;90.93;64.57;;;4.30;99.90;;;;;;4915521;28;89871;-29
2022/01/19 11:33:24;;;;;;;93.13;63.17;;;4.40;99.90;;;;;;4915633;28;89573;-29
2022/01/19 11:35:55;;;;;;;86.05;63.03;;;4.40;99.90;;;;;;4914995;28;89375;-32
2022/01/19 11:38:38;;;;;;;96.57;67.07;;;4.40;99.90;;;;;;4915000;28;90333;-32
2022/01/19 11:41:42;;;;;;;94.07;67.80;;;4.40;99.90;;;;;;4915146;28;89454;-31
2022/01/19 11:44:14;;;;;;;99.80;64.88;;;4.40;99.90;;;;;;4947338;23;87779;-29
2022/01/19 11:47:05;;;;;;;102.38;64.40;;;4.40;99.90;;;;;;4914454;28;87566;-32
2022/01/19 11:49:56;;;;;;;97.45;62.97;;;4.40;99.90;;;;;;4908357;28;90124;-30
2022/01/19 11:52:48;;;;;;;100.55;67.28;;;4.40;99.90;;;;;;4914952;28;89204;-29
2022/01/19 11:55:26;;;;;;;110.22;67.95;;;4.50;99.90;;;;;;4914921;28;89486;-29
2022/01/19 11:58:13;;;;;;;104.13;68.82;;;4.40;99.90;;;;;;4914742;28;88078;-32
2022/01/19 12:00:40;;;;;;;99.82;68.25;;;4.40;99.90;;;;;;4913421;28;90049;-29
2022/01/19 12:03:21;;;;;;;99.70;67.73;;;4.40;99.90;;;;;;4852409;28;90502;-30
2022/01/19 12:05:52;;;;;;;97.15;67.82;;;4.40;99.90;;;;;;4932611;28;90517;-29
2022/01/19 12:08:38;;;;;;;96.53;66.63;;;4.40;99.90;;;;;;4933467;28;87585;-28
2022/01/19 12:11:16;;;;;;;95.80;66.07;;;4.40;99.90;;;;;;4934018;28;89010;-30
2022/01/19 12:16:47;;;;;;;93.10;61.92;;;4.40;99.90;;;;;;4933557;28;89463;-28
2022/01/19 12:19:16;;;;;;;98.55;66.35;;;4.40;99.90;;;;;;4934094;28;87393;-30
2022/01/19 12:21:55;;;;;;;92.55;64.93;;;4.40;99.90;;;;;;4934573;28;90292;-29
2022/01/19 12:24:27;;;;;;;91.40;66.72;;;4.50;99.90;;;;;;4933781;28;90322;-29
2022/01/19 12:26:57;;;;;;;107.75;68.28;;;4.50;99.90;;;;;;4934228;28;89619;-30
2022/01/19 12:29:38;;;;;;;94.82;61.20;;;4.40;99.90;;;;;;4933724;28;88538;-30
2022/01/19 12:32:15;;;;;;;99.32;64.75;;;4.50;99.90;;;;;;4934213;28;90207;-35
2022/01/19 12:34:48;;;;;;;100.80;64.00;;;4.50;99.90;;;;;;4934021;28;89774;-29
2022/01/19 12:37:34;;;;;;;106.80;69.07;;;4.60;99.90;;;;;;4932125;28;89636;-29
2022/01/19 12:40:17;;;;;;;90.35;65.45;;;4.50;99.90;;;;;;4933621;28;88532;-30
2022/01/19 12:42:46;;;;;;;89.75;61.70;;;4.60;99.90;;;;;;4933894;28;90230;-32
2022/01/19 12:45:15;;;;;;;86.93;63.88;;;4.60;99.90;;;;;;4931505;28;89349;-32
2022/01/19 12:47:40;;;;;;;;;;;4.60;99.90;;;;;;4934477;28;90444;-30
2022/01/19 12:50:06;;;;;;;99.35;61.88;;;4.50;99.90;;;;;;4935972;28;87835;-30
2022/01/19 12:52:34;;;;;;;94.95;65.63;;;4.60;99.90;;;;;;4933960;28;89215;-32
2022/01/19 12:55:15;;;;;;;95.78;64.82;;;4.60;99.90;;;;;;4933567;28;89756;-30
2022/01/19 12:57:41;;;;;;;88.72;62.38;;;4.50;99.90;;;;;;4933791;28;90888;-31
2022/01/19 13:00:14;;;;;;;92.45;62.28;;;4.60;99.90;;;;;;4933898;28;87838;-29
2022/01/19 13:02:39;;;;;;;90.22;64.43;;;4.60;99.90;;;;;;4933813;28;89637;-28
2022/01/19 13:05:08;;;;;;;85.97;60.80;;;4.60;99.90;;;;;;4933048;28;89391;-37
2022/01/19 13:07:38;;;;;;;83.75;57.03;;;4.60;99.90;;;;;;4933307;28;91154;-29
2022/01/19 13:12:57;;;;;;;97.40;66.15;;;4.70;99.90;;;;;;4933816;28;90327;-30
2022/01/19 13:15:25;;;;;;;97.00;60.80;;;4.70;99.90;;;;;;4933504;28;89518;-30
2022/01/19 13:17:52;;;;;;;93.20;60.80;;;4.60;99.90;;;;;;4933067;28;89511;-31
2022/01/19 13:20:21;;;;;;;83.28;56.25;;;4.70;99.90;;;;;;4934776;28;88134;-31
2022/01/19 13:22:49;;;;;;;;;;;4.70;99.90;;;;;;4925681;28;90133;-30
2022/01/19 13:25:27;;;;;;;87.78;59.10;;;4.70;99.90;;;;;;4933103;28;89356;-32
2022/01/19 13:27:55;;;;;;;92.83;61.47;;;4.80;99.90;;;;;;4931680;28;89714;-30
2022/01/19 13:30:22;;;;;;;;;;;4.80;99.90;;;;;;4931994;28;88491;-31
2022/01/19 13:32:48;;;;;;;87.35;59.70;;;4.80;99.90;;;;;;4920870;28;90080;-30
2022/01/19 13:35:14;;;;;;;76.05;54.67;;;4.70;99.90;;;;;;4930873;28;89741;-32
2022/01/19 13:37:58;;;;;;;84.55;63.25;;;4.70;99.90;;;;;;4930964;28;89073;-31
2022/01/19 13:40:28;;;;;;;90.60;65.43;;;4.70;99.90;;;;;;4931328;28;87463;-30
2022/01/19 13:43:03;;;;;;;91.00;61.15;;;4.70;99.90;;;;;;4930256;28;90273;-31
2022/01/19 13:45:38;;;;;;;82.35;61.65;;;4.80;99.90;;;;;;4926816;28;91217;-30
2022/01/19 13:50:42;;;;;;;93.60;63.15;;;4.80;99.90;;;;;;4931458;28;88432;-30
2022/01/19 13:53:08;;;;;;;84.80;58.60;;;4.80;99.90;;;;;;4930622;28;89108;-30
2022/01/19 13:55:35;;;;;;;83.97;56.88;;;4.90;99.90;;;;;;4930416;28;89901;-30
2022/01/19 13:58:12;;;;;;;83.75;57.63;;;4.90;99.90;;;;;;4930658;28;88456;-34
2022/01/19 14:00:50;;;;;;;83.28;61.00;;;5.00;99.90;;;;;;4931469;28;87787;-32
2022/01/19 14:03:16;;;;;;;83.57;58.92;;;5.00;99.90;;;;;;4929894;28;90608;-31
2022/01/19 14:05:47;;;;;;;81.38;62.10;;;5.00;99.90;;;;;;4930423;28;89850;-33
2022/01/19 14:08:14;;;;;;;78.22;58.83;;;5.00;99.90;;;;;;4930295;28;88643;-32
2022/01/19 14:10:48;;;;;;;86.65;57.90;;;5.00;99.90;;;;;;4929062;28;87989;-31
2022/01/19 14:13:21;;;;;;;85.20;59.10;;;5.10;99.90;;;;;;4929515;28;89859;-33